Time,TemperatureF,DewpointF,PressureIn,WindDirection,WindDirectionDegrees,WindSpeedMPH,WindSpeedGustMPH,Humidity,HourlyPrecipIn,Conditions,Clouds,dailyrainin,SolarRadiationWatts/m^2,SoftwareType,DateUTC
2013-05-18 18:21:00,57.2,51.4,30.25,ESE,103,3.0,3.0,81,0.00,,,0.00,81,HR-IXPWINDi_r2_v1.2.,2013-05-18 22:21:00,
2013-05-18 18:26:00,57.1,51.6,30.25,NE,42,4.0,12.0,82,0.00,,,0.00,90,HR-IXPWINDi_r2_v1.2.,2013-05-18 22:26:00,
2013-05-18 18:31:00,57.0,51.5,30.25,ENE,74,5.0,12.0,82,0.00,,,0.00,72,HR-IXPWINDi_r2_v1.2.,2013-05-18 22:31:00,
2013-05-18 18:37:00,56.9,51.4,30.25,East,101,3.0,12.0,82,0.00,,,0.00,69,HR-IXPWINDi_r2_v1.2.,2013-05-18 22:37:00,
2013-05-18 18:42:00,57.0,51.5,30.25,NE,40,2.0,12.0,82,0.00,,,0.00,65,HR-IXPWINDi_r2_v1.2.,2013-05-18 22:42:00,
2013-05-18 18:47:00,57.3,51.8,30.25,ENE,78,2.0,9.0,82,0.00,,,0.00,54,HR-IXPWINDi_r2_v1.2.,2013-05-18 22:47:00,
2013-05-18 18:52:00,57.3,51.8,30.25,ENE,64,0.0,10.0,82,0.00,,,0.00,46,HR-IXPWINDi_r2_v1.2.,2013-05-18 22:52:00,
2013-05-18 18:57:00,57.2,51.7,30.25,ENE,70,5.0,13.0,82,0.00,,,0.00,32,HR-IXPWINDi_r2_v1.2.,2013-05-18 22:57:00,
2013-05-18 19:02:00,57.1,51.6,30.25,SE,139,5.0,13.0,82,0.00,,,0.00,30,HR-IXPWINDi_r2_v1.2.,2013-05-18 23:02:00,
2013-05-18 19:08:00,56.9,51.7,30.26,ESE,120,10.0,13.0,83,0.00,,,0.00,32,HR-IXPWINDi_r2_v1.2.,2013-05-18 23:08:00,
2013-05-18 19:13:00,56.9,51.7,30.25,East,87,6.0,12.0,83,0.00,,,0.00,33,HR-IXPWINDi_r2_v1.2.,2013-05-18 23:13:00,
2013-05-18 19:18:00,57.0,51.8,30.25,East,82,7.0,13.0,83,0.00,,,0.00,25,HR-IXPWINDi_r2_v1.2.,2013-05-18 23:18:00,
2013-05-18 19:23:00,57.1,51.9,30.25,ESE,118,7.0,14.0,83,0.00,,,0.00,19,HR-IXPWINDi_r2_v1.2.,2013-05-18 23:23:00,
2013-05-18 19:28:00,57.2,52.0,30.26,SE,133,4.0,14.0,83,0.00,,,0.00,16,HR-IXPWINDi_r2_v1.2.,2013-05-18 23:28:00,
2013-05-18 19:34:00,57.3,51.8,30.25,SE,128,3.0,13.0,82,0.00,,,0.00,14,HR-IXPWINDi_r2_v1.2.,2013-05-18 23:34:00,
2013-05-18 19:39:00,57.7,51.8,30.25,SE,145,8.0,14.0,81,0.00,,,0.00,11,HR-IXPWINDi_r2_v1.2.,2013-05-18 23:39:00,
2013-05-18 19:44:00,58.3,51.4,30.25,SE,139,10.0,14.0,78,0.00,,,0.00,7,HR-IXPWINDi_r2_v1.2.,2013-05-18 23:44:00,
2013-05-18 19:49:00,58.8,51.2,30.25,SE,134,11.0,14.0,76,0.00,,,0.00,0,HR-IXPWINDi_r2_v1.2.,2013-05-18 23:49:00,
2013-05-18 19:54:00,59.0,50.7,30.25,SSE,159,8.0,14.0,74,0.00,,,0.00,0,HR-IXPWINDi_r2_v1.2.,2013-05-18 23:54:00,
2013-05-18 20:00:00,59.5,50.4,30.25,SE,144,7.0,14.0,72,0.00,,,0.00,0,HR-IXPWINDi_r2_v1.2.,2013-05-19 00:00:00,
2013-05-18 20:05:00,59.6,50.1,30.25,SE,140,9.0,14.0,71,0.00,,,0.00,0,HR-IXPWINDi_r2_v1.2.,2013-05-19 00:05:00,
2013-05-18 20:10:00,59.9,50.0,30.25,SSE,163,9.0,14.0,70,0.00,,,0.00,0,HR-IXPWINDi_r2_v1.2.,2013-05-19 00:10:00,
2013-05-18 20:15:00,59.9,50.0,30.25,SSE,155,10.0,14.0,70,0.00,,,0.00,0,HR-IXPWINDi_r2_v1.2.,2013-05-19 00:15:00,
2013-05-18 20:21:00,59.8,49.9,30.25,SSE,152,9.0,14.0,70,0.00,,,0.00,0,HR-IXPWINDi_r2_v1.2.,2013-05-19 00:21:00,
2013-05-18 20:26:00,59.6,50.5,30.25,SSE,155,9.0,13.0,72,0.00,,,0.00,0,HR-IXPWINDi_r2_v1.2.,2013-05-19 00:26:00,
2013-05-18 20:31:00,59.2,50.5,30.25,SSE,166,4.0,12.0,73,0.00,,,0.00,0,HR-IXPWINDi_r2_v1.2.,2013-05-19 00:31:00,
2013-05-18 20:36:00,58.6,50.6,30.26,SE,136,4.0,9.0,75,0.00,,,0.00,0,HR-IXPWINDi_r2_v1.2.,2013-05-19 00:36:00,
2013-05-18 20:41:00,58.3,50.7,30.26,South,184,4.0,7.0,76,0.00,,,0.00,0,HR-IXPWINDi_r2_v1.2.,2013-05-19 00:41:00,
2013-05-18 20:47:00,58.3,50.7,30.26,SSE,159,3.0,7.0,76,0.00,,,0.00,0,HR-IXPWINDi_r2_v1.2.,2013-05-19 00:47:00,
2013-05-18 20:52:00,58.0,50.8,30.26,SSE,149,5.0,7.0,77,0.00,,,0.00,0,HR-IXPWINDi_r2_v1.2.,2013-05-19 00:52:00,
2013-05-18 20:57:00,57.9,51.0,30.26,South,185,5.0,8.0,78,0.00,,,0.00,0,HR-IXPWINDi_r2_v1.2.,2013-05-19 00:57:00,
2013-05-18 21:02:00,58.0,51.5,30.26,South,191,12.0,13.0,79,0.00,,,0.00,0,HR-IXPWINDi_r2_v1.2.,2013-05-19 01:02:00,
2013-05-18 21:07:00,58.4,51.5,30.26,SSW,192,12.0,13.0,78,0.00,,,0.00,0,HR-IXPWINDi_r2_v1.2.,2013-05-19 01:07:00,
2013-05-18 21:13:00,58.6,51.7,30.26,South,189,12.0,13.0,78,0.00,,,0.00,0,HR-IXPWINDi_r2_v1.2.,2013-05-19 01:13:00,
2013-05-18 21:18:00,58.6,51.7,30.26,South,186,13.0,14.0,78,0.00,,,0.00,0,HR-IXPWINDi_r2_v1.2.,2013-05-19 01:18:00,
2013-05-18 21:23:00,58.7,51.8,30.26,SSW,197,12.0,15.0,78,0.00,,,0.00,0,HR-IXPWINDi_r2_v1.2.,2013-05-19 01:23:00,
2013-05-18 21:28:00,58.8,51.5,30.26,SSW,202,14.0,16.0,77,0.00,,,0.00,0,HR-IXPWINDi_r2_v1.2.,2013-05-19 01:28:00,
2013-05-18 21:33:00,58.9,51.6,30.26,SSW,194,13.0,16.0,77,0.00,,,0.00,0,HR-IXPWINDi_r2_v1.2.,2013-05-19 01:33:00,
2013-05-18 21:39:00,58.8,51.5,30.26,South,183,13.0,16.0,77,0.00,,,0.00,0,HR-IXPWINDi_r2_v1.2.,2013-05-19 01:39:00,
2013-05-18 21:44:00,58.8,51.5,30.26,SSW,194,12.0,16.0,77,0.00,,,0.00,0,HR-IXPWINDi_r2_v1.2.,2013-05-19 01:44:00,
2013-05-18 21:49:00,58.8,51.5,30.26,South,185,15.0,16.0,77,0.00,,,0.00,0,HR-IXPWINDi_r2_v1.2.,2013-05-19 01:49:00,
2013-05-18 21:54:00,58.8,51.2,30.26,SSW,196,12.0,16.0,76,0.00,,,0.00,0,HR-IXPWINDi_r2_v1.2.,2013-05-19 01:54:00,
2013-05-18 21:59:00,58.7,51.1,30.26,South,182,14.0,15.0,76,0.00,,,0.00,0,HR-IXPWINDi_r2_v1.2.,2013-05-19 01:59:00,
2013-05-18 22:04:00,58.7,51.1,30.26,SSW,196,12.0,15.0,76,0.00,,,0.00,0,HR-IXPWINDi_r2_v1.2.,2013-05-19 02:04:00,
2013-05-18 22:10:00,58.7,51.1,30.27,SSW,192,15.0,15.0,76,0.00,,,0.00,0,HR-IXPWINDi_r2_v1.2.,2013-05-19 02:10:00,
2013-05-18 22:15:00,58.8,51.2,30.27,SSW,200,12.0,15.0,76,0.00,,,0.00,0,HR-IXPWINDi_r2_v1.2.,2013-05-19 02:15:00,
2013-05-18 22:20:00,58.7,51.1,30.26,SSW,196,10.0,15.0,76,0.00,,,0.00,0,HR-IXPWINDi_r2_v1.2.,2013-05-19 02:20:00,
2013-05-18 22:25:00,58.6,51.0,30.26,SSW,202,11.0,14.0,76,0.00,,,0.00,0,HR-IXPWINDi_r2_v1.2.,2013-05-19 02:25:00,
2013-05-18 22:30:00,58.6,50.6,30.26,SSW,202,12.0,14.0,75,0.00,,,0.00,0,HR-IXPWINDi_r2_v1.2.,2013-05-19 02:30:00,
2013-05-18 22:35:00,58.9,50.6,30.26,SSW,213,14.0,17.0,74,0.00,,,0.00,0,HR-IXPWINDi_r2_v1.2.,2013-05-19 02:35:00,
2013-05-18 22:40:00,59.1,50.4,30.26,SSW,202,16.0,18.0,73,0.00,,,0.00,0,HR-IXPWINDi_r2_v1.2.,2013-05-19 02:40:00,
2013-05-18 22:45:00,59.2,50.5,30.26,SSW,209,16.0,18.0,73,0.00,,,0.00,0,HR-IXPWINDi_r2_v1.2.,2013-05-19 02:45:00,
2013-05-18 22:51:00,59.2,50.5,30.26,SSW,208,17.0,18.0,73,0.00,,,0.00,0,HR-IXPWINDi_r2_v1.2.,2013-05-19 02:51:00,
2013-05-18 22:56:00,59.4,49.9,30.26,SSW,204,17.0,21.0,71,0.00,,,0.00,0,HR-IXPWINDi_r2_v1.2.,2013-05-19 02:56:00,
2013-05-18 23:01:00,59.5,50.0,30.26,SW,228,18.0,21.0,71,0.00,,,0.00,0,HR-IXPWINDi_r2_v1.2.,2013-05-19 03:01:00,
2013-05-18 23:06:00,59.4,50.3,30.27,SSW,213,12.0,18.0,72,0.00,,,0.00,0,HR-IXPWINDi_r2_v1.2.,2013-05-19 03:06:00,
2013-05-18 23:12:00,59.2,50.1,30.27,SSW,207,12.0,18.0,72,0.00,,,0.00,0,HR-IXPWINDi_r2_v1.2.,2013-05-19 03:12:00,
2013-05-18 23:17:00,59.0,49.9,30.27,SSW,210,14.0,17.0,72,0.00,,,0.00,0,HR-IXPWINDi_r2_v1.2.,2013-05-19 03:17:00,
2013-05-18 23:22:00,58.7,50.4,30.27,SSW,213,10.0,17.0,74,0.00,,,0.00,0,HR-IXPWINDi_r2_v1.2.,2013-05-19 03:22:00,
2013-05-18 23:27:00,58.4,50.4,30.27,SSW,210,11.0,15.0,75,0.00,,,0.00,0,HR-IXPWINDi_r2_v1.2.,2013-05-19 03:27:00,
2013-05-18 23:32:00,58.5,50.2,30.27,SW,217,14.0,15.0,74,0.00,,,0.00,0,HR-IXPWINDi_r2_v1.2.,2013-05-19 03:32:00,
2013-05-18 23:37:00,58.5,49.8,30.27,SSW,207,13.0,15.0,73,0.00,,,0.00,0,HR-IXPWINDi_r2_v1.2.,2013-05-19 03:37:00,
2013-05-18 23:43:00,58.6,49.9,30.27,SW,229,13.0,15.0,73,0.00,,,0.00,0,HR-IXPWINDi_r2_v1.2.,2013-05-19 03:43:00,
2013-05-18 23:48:00,58.5,49.8,30.27,SW,231,18.0,18.0,73,0.00,,,0.00,0,HR-IXPWINDi_r2_v1.2.,2013-05-19 03:48:00,
2013-05-18 23:53:00,58.4,49.7,30.27,SW,225,11.0,18.0,73,0.00,,,0.00,0,HR-IXPWINDi_r2_v1.2.,2013-05-19 03:53:00,
2013-05-18 23:58:00,58.1,50.2,30.27,SW,216,11.0,18.0,75,0.00,,,0.00,0,HR-IXPWINDi_r2_v1.2.,2013-05-19 03:58:00,